Time;durP1;ratioP1;P1;durP2;ratioP2;P2;SDS_P1;SDS_P2;PMS_P1;PMS_P2;Temp;Humidity;BMP_temperature;BMP_pressure;BME280_temperature;BME280_humidity;BME280_pressure;Samples;Min_cycle;Max_cycle;Signal;HPM_P1;HPM_P2
2023/09/19 00:03:28;;;;;;;;;;;22.20;68.50;;;;;;10335622;28;19934;-50
2023/09/19 00:08:30;;;;;;;;;;;22.20;68.30;;;;;;10351503;28;20003;-47
2023/09/19 00:13:33;;;;;;;;;;;22.20;68.10;;;;;;10351802;28;19941;-49
2023/09/19 00:18:35;;;;;;;;;;;22.20;68.00;;;;;;10352223;28;20011;-45
2023/09/19 00:23:38;;;;;;;;;;;22.20;67.80;;;;;;10350388;28;19933;-48
2023/09/19 00:28:39;;;;;;;;;;;22.20;67.70;;;;;;10352394;28;20440;-46
2023/09/19 00:33:42;;;;;;;;;;;22.10;67.70;;;;;;10345938;28;20033;-50
2023/09/19 00:38:46;;;;;;;;;;;22.10;67.50;;;;;;10350862;28;20183;-48
2023/09/19 00:43:47;;;;;;;;;;;22.10;67.40;;;;;;10341253;28;20041;-48
2023/09/19 00:48:49;;;;;;;;;;;22.10;67.30;;;;;;10343655;28;19941;-50
2023/09/19 00:53:52;;;;;;;;;;;22.10;67.30;;;;;;10349155;28;20571;-51
2023/09/19 00:58:54;;;;;;;;;;;22.10;67.20;;;;;;10351687;28;19940;-47
2023/09/19 01:03:57;;;;;;;;;;;22.10;67.10;;;;;;10316767;28;20138;-49
2023/09/19 01:08:59;;;;;;;;;;;22.10;68.10;;;;;;10350030;28;20986;-44
2023/09/19 01:14:07;;;;;;;;;;;22.10;67.00;;;;;;10349715;28;19941;-45
2023/09/19 01:19:22;;;;;;;;;;;22.00;66.90;;;;;;10330769;28;19938;-46
2023/09/19 01:24:43;;;;;;;;;;;22.10;66.90;;;;;;10347307;28;20357;-46
2023/09/19 01:29:46;;;;;;;;;;;22.00;66.80;;;;;;10348662;28;20431;-45
2023/09/19 01:34:49;;;;;;;;;;;22.00;66.80;;;;;;10349501;28;20190;-46
2023/09/19 01:39:53;;;;;;;;;;;22.00;66.70;;;;;;10355257;28;19988;-46
2023/09/19 01:44:59;;;;;;;;;;;22.00;66.80;;;;;;10356266;28;19933;-48
2023/09/19 01:50:10;;;;;;;;;;;21.90;66.50;;;;;;10355649;28;19941;-46
2023/09/19 01:55:17;;;;;;;;;;;21.90;66.70;;;;;;10345594;28;19934;-45
2023/09/19 02:00:21;;;;;;;;;;;21.90;67.50;;;;;;10356591;28;19934;-50
2023/09/19 02:05:27;;;;;;;;;;;21.90;66.60;;;;;;10326890;28;19937;-46
2023/09/19 02:10:29;;;;;;;;;;;21.90;66.40;;;;;;10324989;28;20917;-47
2023/09/19 02:15:34;;;;;;;;;;;21.90;66.40;;;;;;10355071;28;20344;-46
2023/09/19 02:20:36;;;;;;;;;;;21.90;66.30;;;;;;10335949;28;19938;-46
2023/09/19 02:25:39;;;;;;;;;;;21.90;66.30;;;;;;10355684;28;20389;-49
2023/09/19 02:30:40;;;;;;;;;;;21.90;67.30;;;;;;10354858;28;20040;-54
2023/09/19 02:35:42;;;;;;;;;;;21.90;66.30;;;;;;10354598;28;20294;-48
2023/09/19 02:40:44;;;;;;;;;;;21.90;66.20;;;;;;10353842;28;20184;-51
2023/09/19 02:45:55;;;;;;;;;;;21.90;66.10;;;;;;10354302;28;20381;-63
2023/09/19 02:50:57;;;;;;;;;;;21.90;66.10;;;;;;10333618;28;20232;-48
2023/09/19 02:55:59;;;;;;;;;;;21.90;66.10;;;;;;10353447;28;19940;-48
2023/09/19 03:01:08;;;;;;;;;;;21.90;66.00;;;;;;10353004;28;20456;-49
2023/09/19 03:06:09;;;;;;;;;;;21.90;66.00;;;;;;10319845;28;20071;-44
2023/09/19 03:11:12;;;;;;;;;;;21.90;65.90;;;;;;10353331;28;19934;-47
2023/09/19 03:16:15;;;;;;;;;;;21.90;65.70;;;;;;10351456;28;20747;-48
2023/09/19 03:21:17;;;;;;;;;;;21.90;65.70;;;;;;10352439;28;19941;-47
2023/09/19 03:26:19;;;;;;;;;;;21.90;65.70;;;;;;10353218;28;19933;-45
2023/09/19 03:31:20;;;;;;;;;;;21.90;65.60;;;;;;10352153;28;19934;-48
2023/09/19 03:36:22;;;;;;;;;;;21.90;65.60;;;;;;10352557;28;20032;-48
2023/09/19 03:41:25;;;;;;;;;;;21.90;65.50;;;;;;10352792;28;19941;-46
2023/09/19 03:46:27;;;;;;;;;;;21.90;65.50;;;;;;10331961;28;19934;-47
2023/09/19 03:51:29;;;;;;;;;;;21.80;65.50;;;;;;10322635;28;20415;-46
2023/09/19 03:56:31;;;;;;;;;;;21.80;65.50;;;;;;10352663;28;19934;-45
2023/09/19 04:01:33;;;;;;;;;;;21.90;65.40;;;;;;10351465;28;19937;-45
2023/09/19 04:06:35;;;;;;;;;;;21.80;65.40;;;;;;10351032;28;19940;-48
2023/09/19 04:11:37;;;;;;;;;;;21.80;65.30;;;;;;10352426;28;19934;-48
2023/09/19 04:16:39;;;;;;;;;;;21.80;66.40;;;;;;10328073;28;19934;-45
2023/09/19 04:21:41;;;;;;;;;;;21.80;65.20;;;;;;10350927;28;19965;-45
2023/09/19 04:26:42;;;;;;;;;;;21.80;65.20;;;;;;10350931;28;19941;-47
2023/09/19 04:31:45;;;;;;;;;;;21.80;65.30;;;;;;10351701;28;19933;-47
2023/09/19 04:36:47;;;;;;;;;;;21.80;65.40;;;;;;10333192;28;20030;-49
2023/09/19 04:41:48;;;;;;;;;;;21.70;65.20;;;;;;10352966;28;19933;-51
2023/09/19 04:52:08;;;;;;;;;;;21.70;65.30;;;;;;10333242;22;19933;-68
2023/09/19 04:57:10;;;;;;;;;;;21.70;65.20;;;;;;10370790;28;19934;-68
2023/09/19 05:02:12;;;;;;;;;;;21.70;65.20;;;;;;10383029;28;19934;-68
2023/09/19 05:07:13;;;;;;;;;;;21.70;65.20;;;;;;10396750;28;20334;-68
2023/09/19 05:12:15;;;;;;;;;;;21.70;65.00;;;;;;10387703;28;20353;-69
2023/09/19 05:17:17;;;;;;;;;;;21.70;65.00;;;;;;10394195;28;19934;-69
2023/09/19 05:22:18;;;;;;;;;;;21.70;65.00;;;;;;10403583;28;19933;-69
2023/09/19 05:27:21;;;;;;;;;;;21.70;65.60;;;;;;10390660;28;19933;-69
2023/09/19 05:32:23;;;;;;;;;;;21.60;64.30;;;;;;10387621;28;20308;-69
2023/09/19 05:37:26;;;;;;;;;;;21.50;64.60;;;;;;10391032;28;19935;-69
2023/09/19 05:42:28;;;;;;;;;;;21.50;64.70;;;;;;10404367;28;19943;-68
2023/09/19 05:47:29;;;;;;;;;;;21.50;64.70;;;;;;10392072;28;20391;-73
2023/09/19 05:52:31;;;;;;;;;;;21.50;65.10;;;;;;10394228;28;20355;-69
2023/09/19 05:57:39;;;;;;;;;;;21.50;65.20;;;;;;10401850;28;20347;-69
2023/09/19 06:02:41;;;;;;;;;;;21.50;65.20;;;;;;10397694;28;19941;-69
2023/09/19 06:07:42;;;;;;;;;;;21.50;65.20;;;;;;10391839;28;19964;-69
2023/09/19 06:12:44;;;;;;;;;;;21.50;65.20;;;;;;10390620;28;20388;-69
2023/09/19 06:17:47;;;;;;;;;;;21.50;65.20;;;;;;10412847;28;19969;-71
2023/09/19 06:22:48;;;;;;;;;;;21.50;65.20;;;;;;10392724;28;19937;-75
2023/09/19 06:27:53;;;;;;;;;;;21.60;68.80;;;;;;10397565;28;19957;-64
2023/09/19 06:32:59;;;;;;;;;;;21.60;67.40;;;;;;10398365;28;20024;-66
2023/09/19 06:38:05;;;;;;;;;;;21.60;66.90;;;;;;10411177;28;19981;-71
2023/09/19 06:43:09;;;;;;;;;;;21.60;66.80;;;;;;10405086;28;20016;-66
2023/09/19 06:48:12;;;;;;;;;;;21.60;66.60;;;;;;10399045;28;20024;-63
2023/09/19 06:53:14;;;;;;;;;;;21.60;67.30;;;;;;10421790;28;19933;-63
2023/09/19 06:58:16;;;;;;;;;;;21.60;67.10;;;;;;10403892;28;19941;-64
2023/09/19 07:03:21;;;;;;;;;;;21.70;67.20;;;;;;10395153;28;19933;-66
2023/09/19 07:08:23;;;;;;;;;;;21.70;67.20;;;;;;10394115;28;19939;-66
2023/09/19 07:13:25;;;;;;;;;;;21.70;68.00;;;;;;10390580;28;19933;-66
2023/09/19 07:18:27;;;;;;;;;;;21.70;67.70;;;;;;10400357;28;19933;-66
2023/09/19 07:23:29;;;;;;;;;;;21.70;67.50;;;;;;10403004;28;19941;-66
2023/09/19 07:28:32;;;;;;;;;;;21.70;67.90;;;;;;10396568;28;19939;-63
2023/09/19 07:33:34;;;;;;;;;;;21.70;66.50;;;;;;10405027;28;20515;-64
2023/09/19 07:38:36;;;;;;;;;;;21.60;66.00;;;;;;10400184;28;20304;-65
2023/09/19 07:43:40;;;;;;;;;;;21.60;66.00;;;;;;10400431;28;19941;-64
2023/09/19 07:48:47;;;;;;;;;;;21.60;65.90;;;;;;10394531;28;19934;-64
2023/09/19 07:53:49;;;;;;;;;;;21.60;66.00;;;;;;10393490;28;19933;-64
2023/09/19 07:58:51;;;;;;;;;;;21.60;65.90;;;;;;10418521;28;20446;-66
2023/09/19 08:03:53;;;;;;;;;;;21.60;66.00;;;;;;10393070;28;19944;-66
2023/09/19 08:08:57;;;;;;;;;;;21.60;65.90;;;;;;10399477;28;20034;-66
2023/09/19 08:14:00;;;;;;;;;;;21.60;66.00;;;;;;10391862;28;20776;-65
2023/09/19 08:19:02;;;;;;;;;;;21.60;65.90;;;;;;10392866;28;19933;-66
2023/09/19 08:24:04;;;;;;;;;;;21.50;65.80;;;;;;10398752;28;19940;-65
2023/09/19 08:29:07;;;;;;;;;;;21.50;65.90;;;;;;10397317;28;19933;-65
2023/09/19 08:34:09;;;;;;;;;;;21.50;65.80;;;;;;10395001;28;20419;-66
2023/09/19 08:39:11;;;;;;;;;;;21.50;65.70;;;;;;10393360;28;19933;-65
2023/09/19 08:44:13;;;;;;;;;;;21.60;65.70;;;;;;10392308;28;20315;-66
2023/09/19 08:49:24;;;;;;;;;;;21.50;65.70;;;;;;10391507;28;20278;-66
2023/09/19 08:54:29;;;;;;;;;;;21.60;65.70;;;;;;10385548;28;20064;-66
2023/09/19 08:59:31;;;;;;;;;;;21.50;65.60;;;;;;10398419;28;19933;-66
2023/09/19 09:04:34;;;;;;;;;;;21.50;65.60;;;;;;10380790;28;20380;-66
2023/09/19 09:09:43;;;;;;;;;;;21.50;65.50;;;;;;10402514;28;20368;-66
2023/09/19 09:14:49;;;;;;;;;;;21.50;65.60;;;;;;10391457;28;20090;-66
2023/09/19 09:19:52;;;;;;;;;;;21.60;65.50;;;;;;10390685;28;20312;-66
2023/09/19 09:24:58;;;;;;;;;;;21.60;65.50;;;;;;10390855;28;19981;-66
2023/09/19 09:29:59;;;;;;;;;;;21.60;65.40;;;;;;10391183;28;20672;-66
2023/09/19 09:35:01;;;;;;;;;;;21.60;65.40;;;;;;10382334;28;19933;-66
2023/09/19 09:51:03;;;;;;;;;;;21.70;65.40;;;;;;10392675;28;20389;-66
2023/09/19 09:56:00;;;;;;;;;;;21.70;65.30;;;;;;10393158;28;20309;-66
2023/09/19 10:01:08;;;;;;;;;;;21.60;65.20;;;;;;10402171;28;19934;-66
2023/09/19 10:06:27;;;;;;;;;;;21.70;65.50;;;;;;10415043;28;19960;-66
2023/09/19 10:11:30;;;;;;;;;;;21.70;65.40;;;;;;10397538;28;19933;-65
2023/09/19 10:16:33;;;;;;;;;;;21.70;65.40;;;;;;10398836;28;19933;-66
2023/09/19 10:21:36;;;;;;;;;;;21.70;65.40;;;;;;10397239;28;19937;-67
2023/09/19 10:26:39;;;;;;;;;;;21.80;65.50;;;;;;10396260;28;20410;-66
2023/09/19 10:31:47;;;;;;;;;;;21.70;65.30;;;;;;10397421;28;19944;-65
2023/09/19 10:36:51;;;;;;;;;;;21.80;65.30;;;;;;10397512;28;20469;-66
2023/09/19 10:41:58;;;;;;;;;;;21.80;65.30;;;;;;10396501;28;19974;-66
2023/09/19 10:47:00;;;;;;;;;;;21.80;65.30;;;;;;10386603;28;19941;-67
2023/09/19 10:52:02;;;;;;;;;;;21.80;65.30;;;;;;10402685;28;20360;-66
2023/09/19 10:57:05;;;;;;;;;;;21.80;65.30;;;;;;10413502;28;19934;-66
2023/09/19 11:02:17;;;;;;;;;;;21.80;65.30;;;;;;10395402;28;19980;-65
2023/09/19 11:07:19;;;;;;;;;;;21.80;65.20;;;;;;10400802;28;19933;-66
2023/09/19 11:12:35;;;;;;;;;;;21.80;65.10;;;;;;10396492;28;20007;-66
2023/09/19 11:17:42;;;;;;;;;;;21.80;65.20;;;;;;10396498;28;19940;-66
2023/09/19 11:22:53;;;;;;;;;;;21.80;65.20;;;;;;10382570;28;20012;-66
2023/09/19 11:33:23;;;;;;;;;;;21.80;65.00;;;;;;10396445;28;19939;-66
2023/09/19 11:38:44;;;;;;;;;;;21.80;65.10;;;;;;10396362;28;20028;-66
2023/09/19 11:43:46;;;;;;;;;;;21.80;65.10;;;;;;10394495;28;20393;-66
2023/09/19 11:48:49;;;;;;;;;;;21.80;65.00;;;;;;10396181;28;20033;-66
2023/09/19 11:53:51;;;;;;;;;;;21.80;65.20;;;;;;10395903;28;19977;-66
2023/09/19 11:58:55;;;;;;;;;;;21.80;65.00;;;;;;10395114;28;19938;-66
2023/09/19 12:03:58;;;;;;;;;;;21.80;65.20;;;;;;10393377;28;19937;-65
2023/09/19 12:09:00;;;;;;;;;;;21.80;65.30;;;;;;10395946;28;20018;-65
2023/09/19 12:14:03;;;;;;;;;;;21.80;65.10;;;;;;10405850;28;19934;-65
2023/09/19 12:19:22;;;;;;;;;;;21.80;65.30;;;;;;10393941;28;19937;-65
2023/09/19 12:24:29;;;;;;;;;;;21.80;65.30;;;;;;10392078;28;20388;-65
2023/09/19 12:29:36;;;;;;;;;;;21.70;65.30;;;;;;10392637;28;19933;-65
2023/09/19 12:34:44;;;;;;;;;;;21.70;65.20;;;;;;10382391;28;19940;-65
2023/09/19 12:39:48;;;;;;;;;;;21.70;65.20;;;;;;10393502;28;19940;-65
2023/09/19 12:44:56;;;;;;;;;;;21.70;65.20;;;;;;10392584;28;19941;-65
2023/09/19 12:50:12;;;;;;;;;;;21.60;65.10;;;;;;10391756;28;19934;-66
2023/09/19 12:55:25;;;;;;;;;;;21.60;65.20;;;;;;10392844;28;20007;-65
2023/09/19 13:00:34;;;;;;;;;;;21.60;65.10;;;;;;10380768;28;19941;-65
2023/09/19 13:05:55;;;;;;;;;;;21.60;65.10;;;;;;10392651;28;19964;-63
2023/09/19 13:11:13;;;;;;;;;;;21.60;65.10;;;;;;10404711;28;19934;-65
2023/09/19 13:16:19;;;;;;;;;;;21.60;65.20;;;;;;10389463;28;19934;-65
2023/09/19 13:21:29;;;;;;;;;;;21.60;65.10;;;;;;10392927;28;19940;-65
2023/09/19 13:26:30;;;;;;;;;;;21.60;65.30;;;;;;10390132;28;20071;-65
2023/09/19 13:31:32;;;;;;;;;;;21.60;65.30;;;;;;10393256;28;19934;-65
2023/09/19 13:36:34;;;;;;;;;;;21.60;65.40;;;;;;10398408;28;19968;-65
2023/09/19 13:41:38;;;;;;;;;;;21.60;65.30;;;;;;10399227;28;19940;-65
2023/09/19 13:46:43;;;;;;;;;;;21.60;65.20;;;;;;10399148;28;20233;-65
2023/09/19 13:51:45;;;;;;;;;;;21.60;65.30;;;;;;10403161;28;20562;-63
2023/09/19 13:56:46;;;;;;;;;;;21.60;65.20;;;;;;10399811;28;19940;-65
2023/09/19 14:01:48;;;;;;;;;;;21.60;65.30;;;;;;10403257;28;19940;-65
2023/09/19 14:06:51;;;;;;;;;;;21.60;65.20;;;;;;10407443;28;20044;-65
2023/09/19 14:11:52;;;;;;;;;;;21.60;65.20;;;;;;10390251;28;19933;-65
2023/09/19 14:16:55;;;;;;;;;;;21.60;65.20;;;;;;10403757;28;19933;-64
2023/09/19 14:21:58;;;;;;;;;;;21.60;65.10;;;;;;10397854;28;20147;-65
2023/09/19 14:26:59;;;;;;;;;;;21.60;65.20;;;;;;10402847;28;20388;-65
2023/09/19 14:32:01;;;;;;;;;;;21.60;66.20;;;;;;10398400;28;19940;-65
2023/09/19 14:37:03;;;;;;;;;;;21.60;65.20;;;;;;10405094;28;19933;-65
2023/09/19 14:42:05;;;;;;;;;;;21.60;65.20;;;;;;10390616;28;19940;-65
2023/09/19 14:47:08;;;;;;;;;;;21.60;65.20;;;;;;10405421;28;19941;-65
2023/09/19 14:52:12;;;;;;;;;;;21.60;65.30;;;;;;10407063;28;19938;-65
2023/09/19 14:57:14;;;;;;;;;;;21.60;65.20;;;;;;10401797;28;19933;-65
2023/09/19 15:02:16;;;;;;;;;;;21.60;65.30;;;;;;10403263;28;19940;-65
2023/09/19 15:07:19;;;;;;;;;;;21.60;65.30;;;;;;10410478;28;20386;-65
2023/09/19 15:12:21;;;;;;;;;;;21.60;65.30;;;;;;10397065;28;20027;-65
2023/09/19 15:17:25;;;;;;;;;;;21.60;65.30;;;;;;10405276;28;20285;-65
2023/09/19 15:22:26;;;;;;;;;;;21.60;65.30;;;;;;10409661;28;20497;-65
2023/09/19 15:27:30;;;;;;;;;;;21.60;65.40;;;;;;10394712;28;20022;-66
2023/09/19 15:32:32;;;;;;;;;;;21.60;65.40;;;;;;10399672;28;19933;-65
2023/09/19 15:37:34;;;;;;;;;;;21.60;65.50;;;;;;10406873;28;20348;-65
2023/09/19 15:42:35;;;;;;;;;;;21.50;65.60;;;;;;10409094;28;20405;-65
2023/09/19 15:47:38;;;;;;;;;;;21.50;65.80;;;;;;10408789;28;20048;-65
2023/09/19 15:52:41;;;;;;;;;;;21.50;65.90;;;;;;10401887;28;20228;-65
2023/09/19 15:57:42;;;;;;;;;;;21.50;66.00;;;;;;10400491;28;20655;-65
2023/09/19 16:02:47;;;;;;;;;;;21.50;66.00;;;;;;10398771;28;19933;-65
2023/09/19 16:07:49;;;;;;;;;;;21.50;66.00;;;;;;10395058;28;19933;-65
2023/09/19 16:12:51;;;;;;;;;;;21.50;66.00;;;;;;10393755;28;19933;-65
2023/09/19 16:17:54;;;;;;;;;;;21.50;66.00;;;;;;10392770;28;19956;-64
2023/09/19 16:22:56;;;;;;;;;;;21.50;66.00;;;;;;10392262;28;19933;-65
2023/09/19 16:27:58;;;;;;;;;;;21.50;66.20;;;;;;10414878;28;20042;-65
2023/09/19 16:33:00;;;;;;;;;;;21.40;66.10;;;;;;10396578;28;20685;-65
2023/09/19 16:38:02;;;;;;;;;;;21.40;67.10;;;;;;10412355;28;19934;-65
2023/09/19 16:43:03;;;;;;;;;;;21.50;66.20;;;;;;10392955;28;19934;-65
2023/09/19 16:48:05;;;;;;;;;;;21.40;66.10;;;;;;10409535;28;19956;-65
2023/09/19 16:53:08;;;;;;;;;;;21.40;66.10;;;;;;10407318;28;19934;-65
2023/09/19 16:58:12;;;;;;;;;;;21.40;66.00;;;;;;10392753;28;19933;-65
2023/09/19 17:03:14;;;;;;;;;;;21.40;66.10;;;;;;10391417;28;19935;-65
2023/09/19 17:08:16;;;;;;;;;;;21.40;66.10;;;;;;10378838;28;20312;-65
2023/09/19 17:13:17;;;;;;;;;;;21.40;66.10;;;;;;10391779;28;21793;-64
2023/09/19 17:18:19;;;;;;;;;;;21.40;66.10;;;;;;10392178;28;19934;-65
2023/09/19 17:23:21;;;;;;;;;;;21.40;66.30;;;;;;10395419;28;19933;-65
2023/09/19 17:28:23;;;;;;;;;;;21.40;66.30;;;;;;10395316;28;19941;-65
2023/09/19 17:33:26;;;;;;;;;;;21.40;66.30;;;;;;10394859;28;20379;-65
2023/09/19 17:38:28;;;;;;;;;;;21.40;66.40;;;;;;10390789;28;19934;-63
2023/09/19 17:43:34;;;;;;;;;;;21.40;66.40;;;;;;10393655;28;19933;-64
2023/09/19 17:48:40;;;;;;;;;;;21.40;66.40;;;;;;10397907;28;19934;-65
2023/09/19 17:53:45;;;;;;;;;;;21.40;66.50;;;;;;10392827;28;20316;-65
2023/09/19 17:58:56;;;;;;;;;;;21.40;66.40;;;;;;10389017;28;19933;-65
2023/09/19 18:04:01;;;;;;;;;;;21.40;66.40;;;;;;10405155;28;19933;-64
2023/09/19 18:09:07;;;;;;;;;;;21.40;66.50;;;;;;10390678;28;19937;-66
2023/09/19 18:14:09;;;;;;;;;;;21.40;66.50;;;;;;10404604;28;19981;-66
2023/09/19 18:19:12;;;;;;;;;;;21.50;66.50;;;;;;10392875;28;20243;-66
2023/09/19 18:24:14;;;;;;;;;;;21.40;66.40;;;;;;10397120;28;20411;-64
2023/09/19 18:29:16;;;;;;;;;;;21.40;66.40;;;;;;10409120;28;19976;-66
2023/09/19 18:34:17;;;;;;;;;;;21.50;66.50;;;;;;10395867;28;20040;-66
2023/09/19 18:39:20;;;;;;;;;;;21.50;66.40;;;;;;10394509;28;19972;-66
2023/09/19 18:44:22;;;;;;;;;;;21.50;66.40;;;;;;10395557;28;19974;-66
2023/09/19 18:49:25;;;;;;;;;;;21.50;66.40;;;;;;10407426;28;19984;-66
2023/09/19 18:54:26;;;;;;;;;;;21.50;66.40;;;;;;10395016;28;20216;-66
2023/09/19 18:59:28;;;;;;;;;;;21.50;66.40;;;;;;10403500;28;20005;-66
2023/09/19 19:04:30;;;;;;;;;;;21.50;66.40;;;;;;10403337;28;20771;-66
2023/09/19 19:09:33;;;;;;;;;;;21.50;66.60;;;;;;10400478;28;19969;-66
2023/09/19 19:14:34;;;;;;;;;;;21.40;66.50;;;;;;10394979;28;19940;-66
2023/09/19 19:19:40;;;;;;;;;;;21.40;66.50;;;;;;10395027;28;19940;-66
2023/09/19 19:24:42;;;;;;;;;;;21.40;66.50;;;;;;10405314;28;19933;-65
2023/09/19 19:29:43;;;;;;;;;;;21.40;66.50;;;;;;10404129;28;20780;-66
2023/09/19 19:34:45;;;;;;;;;;;21.40;66.50;;;;;;10402999;28;19933;-66
2023/09/19 19:39:47;;;;;;;;;;;21.40;66.60;;;;;;10401705;28;19933;-66
2023/09/19 19:44:53;;;;;;;;;;;21.40;66.60;;;;;;10394927;28;19969;-66
2023/09/19 19:49:58;;;;;;;;;;;21.40;66.60;;;;;;10403756;28;19933;-67
2023/09/19 19:55:00;;;;;;;;;;;21.30;66.70;;;;;;10391856;28;19963;-67
2023/09/19 20:00:05;;;;;;;;;;;21.30;66.70;;;;;;10392208;28;20491;-63
2023/09/19 20:05:08;;;;;;;;;;;21.30;66.80;;;;;;10388407;28;19937;-66
2023/09/19 20:10:13;;;;;;;;;;;21.40;66.80;;;;;;10394799;28;20371;-65
2023/09/19 20:15:14;;;;;;;;;;;21.30;66.80;;;;;;10405786;28;19934;-65
2023/09/19 20:20:17;;;;;;;;;;;21.30;66.80;;;;;;10380774;28;19940;-65
2023/09/19 20:25:20;;;;;;;;;;;21.30;66.90;;;;;;10417235;28;19933;-65
2023/09/19 20:30:23;;;;;;;;;;;21.30;67.20;;;;;;10396896;28;19933;-65
2023/09/19 20:35:25;;;;;;;;;;;21.30;66.90;;;;;;10395336;28;20053;-66
2023/09/19 20:40:27;;;;;;;;;;;21.30;66.90;;;;;;10394568;28;20704;-65
2023/09/19 20:45:28;;;;;;;;;;;21.30;66.90;;;;;;10403477;28;19935;-65
2023/09/19 20:50:30;;;;;;;;;;;21.30;67.00;;;;;;10394730;28;19934;-65
2023/09/19 20:55:34;;;;;;;;;;;21.30;67.00;;;;;;10390062;28;20033;-65
2023/09/19 21:00:39;;;;;;;;;;;21.30;67.00;;;;;;10393383;28;19940;-65
2023/09/19 21:05:40;;;;;;;;;;;21.30;67.00;;;;;;10396670;28;20582;-65
2023/09/19 21:10:42;;;;;;;;;;;21.30;67.00;;;;;;10395195;28;19933;-65
2023/09/19 21:15:43;;;;;;;;;;;21.30;67.10;;;;;;10405474;28;20308;-65
2023/09/19 21:20:45;;;;;;;;;;;21.30;67.00;;;;;;10391856;28;19941;-65
2023/09/19 21:25:53;;;;;;;;;;;21.30;67.00;;;;;;10391477;28;19934;-65
2023/09/19 21:30:56;;;;;;;;;;;21.30;67.10;;;;;;10392138;28;19941;-66
2023/09/19 21:35:58;;;;;;;;;;;21.30;67.10;;;;;;10409933;28;19934;-66
2023/09/19 21:41:05;;;;;;;;;;;21.30;67.10;;;;;;10407595;28;19934;-65
2023/09/19 21:46:08;;;;;;;;;;;21.30;67.00;;;;;;10390795;28;19934;-65
2023/09/19 21:51:10;;;;;;;;;;;21.30;67.00;;;;;;10399597;28;19945;-66
2023/09/19 21:56:14;;;;;;;;;;;21.30;67.00;;;;;;10396346;28;19940;-65
2023/09/19 22:01:23;;;;;;;;;;;21.30;67.00;;;;;;10398024;28;19933;-66
2023/09/19 22:06:26;;;;;;;;;;;21.30;66.90;;;;;;10382556;28;19934;-66
2023/09/19 22:11:28;;;;;;;;;;;21.30;67.00;;;;;;10411888;28;20416;-65
2023/09/19 22:16:29;;;;;;;;;;;21.30;66.90;;;;;;10397801;28;19941;-66
2023/09/19 22:21:38;;;;;;;;;;;21.30;66.90;;;;;;10397837;28;20344;-65
2023/09/19 22:26:45;;;;;;;;;;;21.30;66.90;;;;;;10407058;28;20024;-65
2023/09/19 22:31:47;;;;;;;;;;;21.30;66.90;;;;;;10397754;28;20085;-66
2023/09/19 22:36:54;;;;;;;;;;;21.30;67.00;;;;;;10428056;28;19980;-65
2023/09/19 22:41:59;;;;;;;;;;;21.30;66.90;;;;;;10404100;28;19933;-66
2023/09/19 22:47:02;;;;;;;;;;;21.30;66.90;;;;;;10392180;28;20028;-66
2023/09/19 22:52:04;;;;;;;;;;;21.30;67.00;;;;;;10393894;28;20812;-65
2023/09/19 22:57:09;;;;;;;;;;;21.30;67.10;;;;;;10395202;28;19941;-65
2023/09/19 23:02:13;;;;;;;;;;;21.30;67.10;;;;;;10398302;28;20189;-66
2023/09/19 23:07:15;;;;;;;;;;;21.30;67.10;;;;;;10412203;28;19940;-65
2023/09/19 23:12:19;;;;;;;;;;;21.30;67.20;;;;;;10401714;28;19933;-66
2023/09/19 23:17:22;;;;;;;;;;;21.20;67.20;;;;;;10396283;28;19940;-65
2023/09/19 23:22:28;;;;;;;;;;;21.30;67.20;;;;;;10395658;28;20689;-65
2023/09/19 23:27:33;;;;;;;;;;;21.20;67.20;;;;;;10420363;28;19980;-65
2023/09/19 23:32:38;;;;;;;;;;;21.20;67.20;;;;;;10393083;28;19937;-66
2023/09/19 23:37:40;;;;;;;;;;;21.20;67.20;;;;;;10417393;28;19933;-65
2023/09/19 23:42:42;;;;;;;;;;;21.20;67.20;;;;;;10394097;28;20389;-65
2023/09/19 23:47:45;;;;;;;;;;;21.20;67.20;;;;;;10418691;28;19940;-65
2023/09/19 23:52:48;;;;;;;;;;;21.20;67.30;;;;;;10397511;28;19940;-65
2023/09/19 23:57:49;;;;;;;;;;;21.20;67.30;;;;;;10405659;28;19933;-65
